Aérodrome :
LOGIN :

S'inscrire | Disclaimer

   EN    FR    IT 

 










Légende :    VFR   VFR Marginal   IFR   IFR Intensif   IFR Très Intensif
Visi : 
Plafond : 
>= 8 km
>= 3000ft
5 à 8 km
1000 à 3000 ft
1500m à 5 km
500 à 1000 ft
800 à 1500m
200 à 500 ft
< 800m
< 200 ft
Symboles :   Orages  Brouillard  Fortes neiges  Fortes précipitations  Vent > 20 kt
SIGMETs :   Divers  Orages  Givrage  Turbulence  Onde Orograph.  Cendres Volcan.






- Altitude de l'aérodrome : 322 ft


LHSN - Szolnok

DERNIER METAR :
  • 020624Z 10003KT 3000 -RA BR OVC022 08/07 Q1011 RMK YLO

METARs EXPIRÉS :
  • 020545Z VRB02KT 5000 -RA BR SCT025 OVC040 09/07 Q1011 NOSIG RMK WHT
  • 020515Z 16003KT 130V200 6000 -RA SCT040 OVC060 09/07 Q1010 TEMPO 5000 BR RMK WHT
  • 020445Z 00000KT 6000 -RA BKN040 OVC060 08/07 Q1010 TEMPO 5000 BR RMK WHT
  • 020415Z 11002KT 8000 -RA NSC 08/07 Q1010 TEMPO 5000 -RA BR RMK BLU
  • 012045Z VRB03KT CAVOK 09/06 Q1010 NOSIG RMK BLU
  • 020345Z VRB02KT 8000 -RA NSC 09/07 Q1010 NOSIG RMK BLU
  • 020315Z 13003KT 8000 -RA NSC 09/07 Q1010 NOSIG RMK BLU
  • 020245Z 10004KT 8000 -RA NSC 08/07 Q1010 TEMPO NSW RMK BLU
  • 020215Z 08002KT 8000 -RA NSC 08/07 Q1010 TEMPO NSW RMK BLU
  • 020145Z 08002KT 8000 NSC 08/07 Q1010 RERA TEMPO -RA RMK BLU

TAF AMD TAF LHSN
Valide du 02 à 06h jusqu'au 02 à 15h UTC


020639Z 0206/0215 12005KT 6000 -RA FEW008 BKN020 OVC040
TEMPO 0206/0211 2000 -RA BR BKN007 OVC015
BECMG 0209/0212 16008KT 8000 NSW
TEMPO 0211/0215 5000 -RA BR SCT008 BKN015 OVC030



MET'MAP, la Météo Aéronautique d'un coup d'oeil ! - Copyright ORBIFLY Décembre 2007 - Disclaimer

ORBIFLY MET'MAP TEAM :

Programmation & Développement : Alexandra Zaïnal
Sur une idée originale de : Baudouin d'Aumeries
Soutien technique & logistique : Manuel Goepfert
Assistance : Marc-Olivier Méhu




SOURCES & CREDITS :

   NOAA